createdAt,value
2017-11-19T00:00:29.553Z,80.27
2017-11-19T00:01:10.054Z,80.08
2017-11-19T00:01:50.386Z,80.18
2017-11-19T00:02:31.441Z,80.55
2017-11-19T00:03:11.843Z,81.03
2017-11-19T00:03:52.343Z,81.41
2017-11-19T00:04:32.743Z,81.23
2017-11-19T00:05:13.179Z,80.94
2017-11-19T00:05:53.601Z,80.55
2017-11-19T00:06:33.918Z,81.13
2017-11-19T00:07:14.326Z,80.65
2017-11-19T00:07:54.837Z,81.03
2017-11-19T00:08:35.196Z,80.55
2017-11-19T00:09:15.617Z,81.13
2017-11-19T00:09:56.436Z,81.13
2017-11-19T00:10:36.976Z,81.23
2017-11-19T00:11:17.368Z,80.94
2017-11-19T00:11:57.763Z,80.55
2017-11-19T00:12:38.221Z,80.75
2017-11-19T00:13:18.633Z,81.32
2017-11-19T00:13:59.362Z,81.32
2017-11-19T00:14:39.685Z,81.79
2017-11-19T00:15:20.128Z,81.41
2017-11-19T00:16:00.557Z,81.32
2017-11-19T00:16:40.948Z,81.51
2017-11-19T00:17:21.657Z,81.23
2017-11-19T00:18:02.130Z,81.32
2017-11-19T00:18:42.506Z,81.03
2017-11-19T00:19:23.105Z,80.46
2017-11-19T00:20:03.468Z,81.13
2017-11-19T00:20:43.851Z,80.36
2017-11-19T00:21:24.290Z,80.08
2017-11-19T00:22:04.907Z,80.18
2017-11-19T00:22:45.454Z,80.46
2017-11-19T00:23:25.803Z,80.36
2017-11-19T00:24:06.262Z,79.89
2017-11-19T00:24:46.695Z,79.41
2017-11-19T00:25:27.102Z,80.08
2017-11-19T00:26:07.533Z,80.18
2017-11-19T00:26:47.963Z,80.46
2017-11-19T00:27:28.419Z,79.99
2017-11-19T00:28:08.980Z,79.99
2017-11-19T00:28:49.325Z,80.18
2017-11-19T00:29:29.741Z,80.08
2017-11-19T00:30:10.437Z,80.27
2017-11-19T00:30:50.689Z,80.36
2017-11-19T00:31:31.082Z,80.27
2017-11-19T00:32:11.539Z,79.99
2017-11-19T00:32:52.047Z,80.18
2017-11-19T00:33:32.630Z,80.27
2017-11-19T00:34:13.021Z,80.84
2017-11-19T00:34:53.567Z,81.13
2017-11-19T00:35:34.178Z,81.32
2017-11-19T00:36:14.568Z,81.98
2017-11-19T00:36:55.076Z,81.89
2017-11-19T00:37:35.466Z,81.6
2017-11-19T00:38:15.861Z,81.6
2017-11-19T00:38:57.967Z,81.98
2017-11-19T00:39:38.683Z,82.27
2017-11-19T00:40:19.528Z,82.08
2017-11-19T00:41:00.495Z,81.98
2017-11-19T00:41:40.827Z,81.66
2017-11-19T00:42:23.067Z,80.9
2017-11-19T00:43:03.367Z,81.09
2017-11-19T00:43:43.908Z,80.42
2017-11-19T00:44:24.272Z,80.9
2017-11-19T00:45:04.700Z,80.99
2017-11-19T00:45:45.261Z,81.09
2017-11-19T00:46:25.719Z,80.52
2017-11-19T00:47:08.026Z,80.9
2017-11-19T00:47:51.429Z,81.18
2017-11-19T00:48:33.079Z,80.76
2017-11-19T00:49:18.855Z,80.8
2017-11-19T00:50:00.843Z,81.76
2017-11-19T00:50:41.965Z,80.8
2017-11-19T00:51:22.421Z,81.18
2017-11-19T00:52:04.323Z,82.14
2017-11-19T00:52:44.533Z,82.51
2017-11-19T00:53:25.195Z,81.9
2017-11-19T00:54:07.361Z,82.19
2017-11-19T00:54:48.592Z,81.9
2017-11-19T00:55:30.157Z,81.24
2017-11-19T00:56:11.766Z,82.19
2017-11-19T00:56:55.365Z,82.09
2017-11-19T00:57:37.185Z,82.28
2017-11-19T00:58:19.589Z,82.28
2017-11-19T00:59:01.548Z,82.57
2017-11-19T00:59:42.873Z,82.86
2017-11-19T01:00:23.273Z,82.38
2017-11-19T01:01:03.919Z,82.38
2017-11-19T01:01:44.380Z,82.95
2017-11-19T01:02:24.839Z,82.86
2017-11-19T01:03:05.366Z,82.86
2017-11-19T01:03:45.940Z,82.67
2017-11-19T01:04:26.591Z,82.76
2017-11-19T01:05:08.622Z,83.04
2017-11-19T01:05:48.859Z,82.86
2017-11-19T01:06:29.233Z,83.62
2017-11-19T01:07:09.766Z,83.14
2017-11-19T01:07:50.312Z,82.95
2017-11-19T01:08:30.718Z,82.48
2017-11-19T01:09:11.268Z,81.9
2017-11-19T01:09:52.545Z,82
2017-11-19T01:10:32.964Z,81.24
2017-11-19T01:11:13.536Z,81.43
2017-11-19T01:11:53.912Z,81.9
2017-11-19T01:12:34.277Z,81.24
2017-11-19T01:13:14.739Z,81.14
2017-11-19T01:13:55.123Z,81.37
2017-11-19T01:14:35.514Z,81.28
2017-11-19T01:15:15.981Z,81.37
2017-11-19T01:15:56.603Z,80.95
2017-11-19T01:16:36.919Z,80.99
2017-11-19T01:17:17.513Z,80.8
2017-11-19T01:17:58.062Z,81.09
2017-11-19T01:18:39.256Z,80.9
2017-11-19T01:19:19.501Z,80.52
2017-11-19T01:19:59.515Z,80.71
2017-11-19T01:20:39.960Z,80.52
2017-11-19T01:21:20.336Z,80.13
2017-11-19T01:22:00.793Z,80.61
2017-11-19T01:22:41.203Z,80.13
2017-11-19T01:23:22.203Z,79.09
2017-11-19T01:24:02.729Z,79.28
2017-11-19T01:24:43.123Z,79.47
2017-11-19T01:25:23.573Z,79.57
2017-11-19T01:26:04.892Z,78.99
2017-11-19T01:26:45.268Z,79.09
2017-11-19T01:27:26.246Z,79.19
2017-11-19T01:28:06.375Z,79.57
2017-11-19T01:28:46.792Z,79.38
2017-11-19T01:29:27.665Z,78.99
2017-11-19T01:30:09.582Z,79.09
2017-11-19T01:30:50.893Z,80.04
2017-11-19T01:31:31.164Z,79.75
2017-11-19T01:32:13.177Z,79.94
2017-11-19T01:32:53.996Z,79.75
2017-11-19T01:33:34.124Z,79.75
2017-11-19T01:34:14.619Z,79.85
2017-11-19T01:34:55.056Z,79.19
2017-11-19T01:35:35.477Z,79.57
2017-11-19T01:36:17.015Z,79.47
2017-11-19T01:36:57.615Z,79.94
2017-11-19T01:37:38.211Z,80.13
2017-11-19T01:38:18.604Z,79.85
2017-11-19T01:38:59.451Z,80.04
2017-11-19T01:39:39.792Z,79.19
2017-11-19T01:40:20.245Z,79.38
2017-11-19T01:41:00.851Z,79.09
2017-11-19T01:41:41.318Z,79.09
2017-11-19T01:42:22.922Z,78.14
2017-11-19T01:43:04.753Z,78.99
2017-11-19T01:43:45.436Z,78.42
2017-11-19T01:44:25.993Z,79.09
2017-11-19T01:45:06.078Z,78.52
2017-11-19T01:45:46.604Z,78.52
2017-11-19T01:46:27.221Z,78.42
2017-11-19T01:47:07.775Z,79.47
2017-11-19T01:47:48.165Z,79.47
2017-11-19T01:48:28.614Z,79.19
2017-11-19T01:49:09.133Z,79.19
2017-11-19T01:49:49.680Z,79.09
2017-11-19T01:50:30.229Z,79.19
2017-11-19T01:51:10.567Z,78.42
2017-11-19T01:51:51.771Z,78.14
2017-11-19T01:52:32.340Z,79.09
2017-11-19T01:53:12.761Z,79.19
2017-11-19T01:53:53.236Z,78.9
2017-11-19T01:54:33.653Z,78.33
2017-11-19T01:55:14.110Z,79.19
2017-11-19T01:55:54.445Z,78.99
2017-11-19T01:56:34.818Z,79.09
2017-11-19T01:57:15.327Z,78.99
2017-11-19T01:57:55.788Z,78.8
2017-11-19T01:58:36.548Z,78.42
2017-11-19T01:59:17.108Z,78.52
2017-11-19T01:59:57.570Z,78.52
2017-11-19T02:00:37.920Z,78.52
2017-11-19T02:01:18.468Z,78.42
2017-11-19T02:01:58.892Z,78.52
2017-11-19T02:02:39.264Z,78.42
2017-11-19T02:03:19.795Z,78.42
2017-11-19T02:04:01.088Z,78.61
2017-11-19T02:04:41.130Z,78.42
2017-11-19T02:05:21.735Z,78.99
2017-11-19T02:06:03.297Z,78.52
2017-11-19T02:06:43.606Z,78.04
2017-11-19T02:07:24.341Z,78.52
2017-11-19T02:08:04.976Z,78.9
2017-11-19T02:08:45.518Z,78.14
2017-11-19T02:09:25.889Z,78.04
2017-11-19T02:10:07.683Z,78.61
2017-11-19T02:10:48.106Z,78.42
2017-11-19T02:11:28.563Z,78.61
2017-11-19T02:12:09.040Z,78.61
2017-11-19T02:12:49.486Z,78.52
2017-11-19T02:13:29.910Z,78.42
2017-11-19T02:14:10.544Z,78.71
2017-11-19T02:14:50.788Z,77.95
2017-11-19T02:15:31.204Z,77.66
2017-11-19T02:16:12.266Z,78.04
2017-11-19T02:16:52.340Z,77.85
2017-11-19T02:17:33.396Z,77.85
2017-11-19T02:18:13.859Z,78.52
2017-11-19T02:18:54.696Z,78.52
2017-11-19T02:19:35.153Z,78.52
2017-11-19T02:20:15.594Z,77.95
2017-11-19T02:20:56.063Z,78.14
2017-11-19T02:21:36.429Z,78.52
2017-11-19T02:22:17.042Z,78.52
2017-11-19T02:22:57.487Z,78.42
2017-11-19T02:23:37.846Z,78.8
2017-11-19T02:24:18.215Z,78.8
2017-11-19T02:24:58.679Z,78.61
2017-11-19T02:25:39.994Z,78.04
2017-11-19T02:26:20.386Z,78.14
2017-11-19T02:27:00.952Z,78.14
2017-11-19T02:27:41.306Z,77.95
2017-11-19T02:28:21.827Z,77.76
2017-11-19T02:29:02.326Z,78.14
2017-11-19T02:29:42.800Z,78.52
2017-11-19T02:30:23.353Z,78.33
2017-11-19T02:31:03.740Z,78.52
2017-11-19T02:31:44.265Z,78.71
2017-11-19T02:32:25.551Z,78.52
2017-11-19T02:33:06.067Z,78.8
2017-11-19T02:33:46.957Z,78.99
2017-11-19T02:34:27.227Z,78.71
2017-11-19T02:35:07.930Z,78.8
2017-11-19T02:35:48.464Z,79.24
2017-11-19T02:36:29.478Z,79.72
2017-11-19T02:37:10.016Z,79.75
2017-11-19T02:37:52.004Z,79.57
2017-11-19T02:38:32.498Z,79.47
2017-11-19T02:39:13.258Z,79.52
2017-11-19T02:39:53.769Z,80.1
2017-11-19T02:40:34.270Z,79.91
2017-11-19T02:41:14.730Z,79.43
2017-11-19T02:41:55.383Z,80.1
2017-11-19T02:42:35.828Z,80
2017-11-19T02:43:16.898Z,79.72
2017-11-19T02:43:57.230Z,80.1
2017-11-19T02:44:37.624Z,80.19
2017-11-19T02:45:18.257Z,80.33
2017-11-19T02:45:59.396Z,80.1
2017-11-19T02:46:39.963Z,80.13
2017-11-19T02:47:20.425Z,79.43
2017-11-19T02:48:00.880Z,80.13
2017-11-19T02:48:41.301Z,80.13
2017-11-19T02:49:24.320Z,80.13
2017-11-19T02:50:05.034Z,80.1
2017-11-19T02:50:45.426Z,79.94
2017-11-19T02:51:25.905Z,80.38
2017-11-19T02:52:06.247Z,80.19
2017-11-19T02:52:46.696Z,80.13
2017-11-19T02:53:27.067Z,80.04
2017-11-19T02:54:07.557Z,80.04
2017-11-19T02:54:48.004Z,79.24
2017-11-19T02:55:28.418Z,79.19
2017-11-19T02:56:08.770Z,79.75
2017-11-19T02:56:49.254Z,79.57
2017-11-19T02:57:29.906Z,79.09
2017-11-19T02:58:10.271Z,79.19
2017-11-19T02:58:50.687Z,78.99
2017-11-19T02:59:31.057Z,79.09
2017-11-19T03:00:11.986Z,78.8
2017-11-19T03:00:52.353Z,79.09
2017-11-19T03:01:32.793Z,78.42
2017-11-19T03:02:13.245Z,78.42
2017-11-19T03:02:53.904Z,78.42
2017-11-19T03:03:34.443Z,79.19
2017-11-19T03:04:14.902Z,78.99
2017-11-19T03:04:55.330Z,79.19
2017-11-19T03:05:35.789Z,79.66
2017-11-19T03:06:16.220Z,78.9
2017-11-19T03:06:56.954Z,78.42
2017-11-19T03:07:37.423Z,78.52
2017-11-19T03:08:18.645Z,78.42
2017-11-19T03:08:58.930Z,79.19
2017-11-19T03:09:39.330Z,79.09
2017-11-19T03:10:19.865Z,79.19
2017-11-19T03:11:00.357Z,79.19
2017-11-19T03:11:40.786Z,79.09
2017-11-19T03:12:22.651Z,78.99
2017-11-19T03:13:02.497Z,79.19
2017-11-19T03:13:42.623Z,79.09
2017-11-19T03:14:23.160Z,79.09
2017-11-19T03:15:03.718Z,79.19
2017-11-19T03:15:44.221Z,79.09
2017-11-19T03:16:24.514Z,79.38
2017-11-19T03:17:05.039Z,79.38
2017-11-19T03:17:45.586Z,79.09
2017-11-19T03:18:26.781Z,79.09
2017-11-19T03:19:07.227Z,79.38
2017-11-19T03:19:47.667Z,79.09
2017-11-19T03:20:28.165Z,79.09
2017-11-19T03:21:08.813Z,79.19
2017-11-19T03:21:49.100Z,79.38
2017-11-19T03:22:29.579Z,79.09
2017-11-19T03:23:10.106Z,79.38
2017-11-19T03:23:50.461Z,79.19
2017-11-19T03:24:30.927Z,79.28
2017-11-19T03:25:11.424Z,78.9
2017-11-19T03:25:52.299Z,78.8
2017-11-19T03:26:32.961Z,78.8
2017-11-19T03:27:13.510Z,79.38
2017-11-19T03:27:54.115Z,79.19
2017-11-19T03:28:34.447Z,79.38
2017-11-19T03:29:14.895Z,79.19
2017-11-19T03:29:55.542Z,78.99
2017-11-19T03:30:36.090Z,78.99
2017-11-19T03:31:17.649Z,79.19
2017-11-19T03:31:58.012Z,79.19
2017-11-19T03:32:38.819Z,78.99
2017-11-19T03:33:19.312Z,78.61
2017-11-19T03:33:59.837Z,79.09
2017-11-19T03:34:40.351Z,78.9
2017-11-19T03:35:20.760Z,78.99
2017-11-19T03:36:01.183Z,79.57
2017-11-19T03:36:41.697Z,79.38
2017-11-19T03:37:22.977Z,80.13
2017-11-19T03:38:03.233Z,80.13
2017-11-19T03:38:43.695Z,80.13
2017-11-19T03:39:24.265Z,79.75
2017-11-19T03:40:04.927Z,79.38
2017-11-19T03:40:45.377Z,79.47
2017-11-19T03:41:25.689Z,79.19
2017-11-19T03:42:06.167Z,79.28
2017-11-19T03:42:46.656Z,78.99
2017-11-19T03:43:27.040Z,79.09
2017-11-19T03:44:07.766Z,79.47
2017-11-19T03:44:48.150Z,79.66
2017-11-19T03:45:28.505Z,79.94
2017-11-19T03:46:09.048Z,79.94
2017-11-19T03:46:49.659Z,80.04
2017-11-19T03:47:30.218Z,79.85
2017-11-19T03:48:11.125Z,79.38
2017-11-19T03:48:51.668Z,78.99
2017-11-19T03:49:32.915Z,79.57
2017-11-19T03:50:13.341Z,79.09
2017-11-19T03:50:53.799Z,79.09
2017-11-19T03:51:34.418Z,79.19
2017-11-19T03:52:15.102Z,79.47
2017-11-19T03:52:55.539Z,79.47
2017-11-19T03:53:36.175Z,79.38
2017-11-19T03:54:16.658Z,79.43
2017-11-19T03:54:57.236Z,80.04
2017-11-19T03:55:37.644Z,80.23
2017-11-19T03:56:18.617Z,80.42
2017-11-19T03:56:59.009Z,80.1
2017-11-19T03:57:39.485Z,79.57
2017-11-19T03:58:20.262Z,80.13
2017-11-19T03:59:00.940Z,80.23
2017-11-19T03:59:41.570Z,79.75
2017-11-19T04:00:22.136Z,79.57
2017-11-19T04:01:03.618Z,79.19
2017-11-19T04:01:44.181Z,78.99
2017-11-19T04:42:16.322Z,79.05
2017-11-19T04:42:56.137Z,79.14
2017-11-19T04:43:36.769Z,78.48
2017-11-19T04:44:17.831Z,78.19
2017-11-19T04:44:58.237Z,78.57
2017-11-19T04:45:38.685Z,78.48
2017-11-19T04:46:19.115Z,78.48
2017-11-19T04:46:59.513Z,78.86
2017-11-19T04:47:39.876Z,78.77
2017-11-19T04:48:20.223Z,78.57
2017-11-19T04:49:00.743Z,78.38
2017-11-19T04:49:41.130Z,79.05
2017-11-19T04:50:21.553Z,79.14
2017-11-19T04:51:02.082Z,79.33
2017-11-19T04:51:42.578Z,79.24
2017-11-19T04:52:23.091Z,78.48
2017-11-19T04:53:03.475Z,78.34
2017-11-19T04:53:44.023Z,78.48
2017-11-19T04:54:25.180Z,78.57
2017-11-19T04:55:05.606Z,78.1
2017-11-19T04:55:46.044Z,78.29
2017-11-19T04:56:26.570Z,78
2017-11-19T04:57:06.957Z,77.81
2017-11-19T04:57:48.141Z,77.81
2017-11-19T04:58:28.627Z,78.1
2017-11-19T04:59:08.971Z,78.1
2017-11-19T04:59:49.391Z,77.91
2017-11-19T05:00:29.828Z,77.34
2017-11-19T05:01:10.335Z,77.43
2017-11-19T05:01:50.807Z,77.15
2017-11-19T05:02:31.216Z,77.24
2017-11-19T05:03:11.640Z,77.34
2017-11-19T05:03:52.495Z,76.96
2017-11-19T05:04:32.941Z,76.57
2017-11-19T05:05:14.164Z,76.39
2017-11-19T05:05:54.434Z,76.76
2017-11-19T05:06:36.135Z,76.96
2017-11-19T05:07:16.718Z,77.05
2017-11-19T05:07:57.104Z,76.96
2017-11-19T05:08:38.422Z,77.05
2017-11-19T05:09:19.243Z,76.48
2017-11-19T05:09:59.839Z,76.39
2017-11-19T05:10:40.279Z,76.01
2017-11-19T05:11:20.699Z,76.48
2017-11-19T05:12:01.804Z,75.91
2017-11-19T05:12:42.523Z,76.76
2017-11-19T05:13:24.680Z,76.2
2017-11-19T05:14:04.403Z,76.29
2017-11-19T05:14:45.642Z,76.86
2017-11-19T05:15:26.133Z,76.48
2017-11-19T05:16:06.518Z,76.2
2017-11-19T05:16:48.769Z,76.48
2017-11-19T05:17:29.743Z,75.81
2017-11-19T05:18:10.373Z,76.48
2017-11-19T05:18:51.811Z,76.39
2017-11-19T05:19:32.873Z,76.39
2017-11-19T05:20:13.591Z,76.29
2017-11-19T05:20:54.163Z,76.01
2017-11-19T05:21:36.004Z,75.91
2017-11-19T05:22:16.329Z,76.29
2017-11-19T05:22:56.765Z,75.81
2017-11-19T05:23:38.091Z,75.91
2017-11-19T05:24:18.500Z,76.01
2017-11-19T05:24:59.207Z,75.43
2017-11-19T05:25:39.723Z,76.2
2017-11-19T05:26:20.524Z,75.72
2017-11-19T05:27:01.270Z,75.81
2017-11-19T05:27:41.927Z,75.81
2017-11-19T05:28:22.340Z,76.1
2017-11-19T05:29:02.906Z,76.01
2017-11-19T05:29:43.398Z,76.86
2017-11-19T05:30:23.763Z,77.43
2017-11-19T05:31:04.240Z,76.96
2017-11-19T05:31:44.775Z,76.96
2017-11-19T05:32:25.147Z,76.76
2017-11-19T05:33:05.540Z,76.86
2017-11-19T05:33:46.237Z,76.86
2017-11-19T05:34:26.633Z,77.34
2017-11-19T05:35:07.703Z,76.96
2017-11-19T05:35:48.196Z,77.05
2017-11-19T05:36:28.635Z,77.15
2017-11-19T05:37:09.102Z,76.86
2017-11-19T05:37:50.259Z,76.96
2017-11-19T05:38:32.038Z,77.05
2017-11-19T05:39:13.566Z,76.67
2017-11-19T05:39:53.959Z,77.05
2017-11-19T05:40:34.382Z,76.96
2017-11-19T05:41:15.482Z,77.24
2017-11-19T05:41:55.875Z,76.96
2017-11-19T05:42:37.503Z,76.48
2017-11-19T05:43:19.410Z,77.05
2017-11-19T05:43:59.231Z,76.57
2017-11-19T05:44:39.621Z,76.39
2017-11-19T05:45:22.843Z,76.48
2017-11-19T05:46:03.259Z,76.48
2017-11-19T05:46:43.727Z,76.48
2017-11-19T05:47:24.147Z,75.78
2017-11-19T05:48:04.537Z,77.01
2017-11-19T05:48:45.161Z,77.24
2017-11-19T05:49:25.391Z,76.96
2017-11-19T05:50:05.844Z,77.05
2017-11-19T05:50:46.202Z,76.82
2017-11-19T05:51:26.751Z,77.43
2017-11-19T05:52:07.185Z,77.43
2017-11-19T05:52:47.552Z,76.48
2017-11-19T05:53:27.940Z,76.39
2017-11-19T05:54:08.504Z,76.2
2017-11-19T05:54:48.903Z,76.29
2017-11-19T05:55:29.346Z,75.81
2017-11-19T05:56:09.720Z,76.16
2017-11-19T05:56:50.195Z,76.06
2017-11-19T05:57:30.696Z,76.48
2017-11-19T05:58:11.183Z,76.57
2017-11-19T05:58:52.024Z,76.2
2017-11-19T05:59:32.333Z,76.39
2017-11-19T06:00:12.825Z,75.72
2017-11-19T06:00:53.232Z,75.43
2017-11-19T06:01:33.722Z,75.62
2017-11-19T06:02:14.336Z,75.43
2017-11-19T06:02:54.838Z,74.96
2017-11-19T06:03:35.493Z,74.87
2017-11-19T06:04:16.030Z,74.77
2017-11-19T06:04:56.843Z,74.87
2017-11-19T06:05:37.443Z,74.67
2017-11-19T06:06:18.206Z,75.05
2017-11-19T06:06:58.638Z,75.05
2017-11-19T06:07:39.597Z,74.77
2017-11-19T06:08:20.715Z,74.87
2017-11-19T06:09:02.228Z,74.87
2017-11-19T06:09:42.650Z,74.58
2017-11-19T06:10:23.168Z,74.67
2017-11-19T06:11:03.570Z,75.15
2017-11-19T06:11:44.615Z,75.4
2017-11-19T06:12:25.159Z,75.43
2017-11-19T06:13:05.449Z,74.92
2017-11-19T06:13:46.132Z,75.34
2017-11-19T06:14:27.482Z,75.62
2017-11-19T06:15:07.008Z,75.34
2017-11-19T06:15:47.529Z,74.77
2017-11-19T06:16:28.161Z,74.87
2017-11-19T06:17:08.698Z,74.58
2017-11-19T06:17:49.060Z,74.96
2017-11-19T06:18:29.478Z,74.77
2017-11-19T06:19:09.977Z,74.96
2017-11-19T06:19:50.335Z,75.15
2017-11-19T06:20:30.841Z,74.87
2017-11-19T06:21:11.578Z,74.77
2017-11-19T06:21:52.159Z,74.77
2017-11-19T06:22:32.613Z,75.15
2017-11-19T06:23:12.995Z,75.24
2017-11-19T06:23:53.433Z,75.34
2017-11-19T06:24:34.143Z,74.77
2017-11-19T06:25:14.571Z,74.01
2017-11-19T06:25:54.942Z,73.91
2017-11-19T06:26:35.380Z,73.91
2017-11-19T06:27:15.754Z,74.39
2017-11-19T06:27:56.181Z,73.82
2017-11-19T06:28:36.620Z,73.91
2017-11-19T06:29:17.127Z,73.44
2017-11-19T06:29:57.665Z,73.15
2017-11-19T06:30:39.117Z,73.25
2017-11-19T06:31:19.584Z,73.44
2017-11-19T06:32:00.223Z,73.34
2017-11-19T06:32:40.939Z,74.01
2017-11-19T06:33:21.299Z,73.15
2017-11-19T06:34:01.931Z,73.44
2017-11-19T06:34:42.610Z,74.01
2017-11-19T06:35:24.094Z,73.72
2017-11-19T06:36:04.567Z,74.2
2017-11-19T06:36:45.026Z,73.72
2017-11-19T06:37:25.427Z,72.86
2017-11-19T06:38:06.897Z,73.34
2017-11-19T06:38:47.732Z,74.01
2017-11-19T06:39:27.777Z,73.91
2017-11-19T06:40:08.199Z,73.53
2017-11-19T06:40:48.644Z,73.72
2017-11-19T06:41:29.658Z,73.53
2017-11-19T06:42:09.854Z,73.53
2017-11-19T06:42:50.344Z,73.91
2017-11-19T06:43:30.847Z,74.48
2017-11-19T06:44:11.292Z,73.72
2017-11-19T06:44:52.493Z,74.29
2017-11-19T06:45:33.353Z,74.1
2017-11-19T06:46:14.053Z,74.01
2017-11-19T06:46:54.833Z,73.72
2017-11-19T06:47:35.148Z,73.63
2017-11-19T06:48:15.616Z,73.53
2017-11-19T06:48:56.423Z,73.44
2017-11-19T06:49:38.010Z,72.58
2017-11-19T06:50:18.540Z,72.96
2017-11-19T06:50:58.897Z,73.63
2017-11-19T06:51:39.958Z,73.53
2017-11-19T06:52:21.481Z,73.72
2017-11-19T06:53:02.147Z,73.72
2017-11-19T06:53:42.489Z,74.01
2017-11-19T06:54:22.983Z,74.58
2017-11-19T06:55:04.550Z,73.91
2017-11-19T06:55:44.749Z,73.72
2017-11-19T06:56:25.595Z,73.44
2017-11-19T06:57:07.454Z,73.63
2017-11-19T06:57:47.904Z,74.01
2017-11-19T06:58:29.103Z,74.01
2017-11-19T06:59:09.716Z,73.91
2017-11-19T06:59:50.210Z,73.53
2017-11-19T07:00:30.707Z,73.63
2017-11-19T07:01:11.509Z,73.34
2017-11-19T07:01:51.932Z,73.53
2017-11-19T07:02:32.456Z,73.82
2017-11-19T07:03:12.979Z,73.72
2017-11-19T07:03:53.447Z,73.34
2017-11-19T07:04:33.913Z,74.01
2017-11-19T07:05:14.304Z,74.2
2017-11-19T07:05:54.761Z,74.1
2017-11-19T07:06:35.254Z,73.91
2017-11-19T07:07:15.749Z,73.25
2017-11-19T07:07:56.153Z,72.96
2017-11-19T07:08:36.708Z,72.86
2017-11-19T07:09:17.115Z,73.25
2017-11-19T07:09:57.522Z,73.15
2017-11-19T07:10:37.994Z,73.15
2017-11-19T07:11:18.487Z,72.77
2017-11-19T07:11:58.971Z,73.06
2017-11-19T07:12:40.291Z,73.06
2017-11-19T07:13:20.686Z,72.96
2017-11-19T07:14:01.107Z,72.3
2017-11-19T07:14:41.551Z,72.49
2017-11-19T07:15:22.096Z,72.58
2017-11-19T07:16:02.509Z,72.67
2017-11-19T07:16:42.888Z,72.67
2017-11-19T07:17:23.335Z,72.52
2017-11-19T07:18:03.749Z,72.01
2017-11-19T07:18:44.253Z,71.72
2017-11-19T07:19:24.774Z,71.44
2017-11-19T07:20:05.128Z,72.11
2017-11-19T07:20:45.665Z,72.77
2017-11-19T07:21:26.132Z,72.58
2017-11-19T07:22:06.553Z,72.49
2017-11-19T07:22:47.114Z,72.77
2017-11-19T07:23:27.598Z,72.2
2017-11-19T07:24:08.133Z,71.82
2017-11-19T07:24:48.510Z,71.44
2017-11-19T07:25:29.122Z,71.82
2017-11-19T07:26:09.637Z,72.11
2017-11-19T07:26:50.061Z,71.91
2017-11-19T07:27:30.462Z,71.91
2017-11-19T07:28:10.906Z,71.76
2017-11-19T07:28:51.273Z,71.47
2017-11-19T07:29:31.740Z,71
2017-11-19T07:30:12.260Z,70.81
2017-11-19T07:30:52.856Z,71.47
2017-11-19T07:31:33.351Z,70.52
2017-11-19T07:32:13.757Z,69.95
2017-11-19T07:32:54.268Z,70.24
2017-11-19T07:33:35.264Z,69.85
2017-11-19T07:34:15.876Z,69.19
2017-11-19T07:34:56.322Z,69.76
2017-11-19T07:35:36.676Z,69.6
2017-11-19T07:36:17.230Z,69.29
2017-11-19T07:36:57.594Z,69.29
2017-11-19T07:37:38.156Z,69.19
2017-11-19T07:38:18.519Z,69.51
2017-11-19T07:38:58.935Z,69.48
2017-11-19T07:39:39.334Z,69.79
2017-11-19T07:40:19.762Z,70.27
2017-11-19T07:41:00.249Z,69.99
2017-11-19T07:41:40.956Z,69.79
2017-11-19T07:42:21.385Z,69.51
2017-11-19T07:43:01.997Z,69.6
2017-11-19T07:43:42.494Z,69.7
2017-11-19T07:44:23.010Z,69.89
2017-11-19T07:45:03.558Z,70.27
2017-11-19T07:45:43.915Z,69.89
2017-11-19T07:46:24.326Z,69.99
2017-11-19T07:47:04.814Z,69.99
2017-11-19T07:47:45.258Z,70.18
2017-11-19T07:48:25.704Z,70.27
2017-11-19T07:49:06.189Z,69.7
2017-11-19T07:49:46.715Z,70.27
2017-11-19T07:50:27.070Z,69.99
2017-11-19T07:51:07.571Z,69.99
2017-11-19T07:51:48.053Z,70.14
2017-11-19T07:52:28.722Z,70.72
2017-11-19T07:53:09.138Z,70.52
2017-11-19T07:53:49.654Z,71.57
2017-11-19T07:54:29.977Z,71.28
2017-11-19T07:55:10.504Z,71.47
2017-11-19T07:55:50.990Z,71.28
2017-11-19T07:56:31.741Z,70.43
2017-11-19T07:57:11.898Z,71.03
2017-11-19T07:57:52.370Z,70.47
2017-11-19T07:58:32.759Z,70.52
2017-11-19T07:59:13.408Z,71.09
2017-11-19T07:59:55.912Z,70.81
2017-11-19T08:00:36.268Z,71.47
2017-11-19T08:01:16.790Z,71.51
2017-11-19T08:01:57.346Z,71.28
2017-11-19T08:02:37.679Z,71.76
2017-11-19T08:03:18.118Z,71.47
2017-11-19T08:03:58.962Z,71.38
2017-11-19T08:04:39.381Z,72.05
2017-11-19T08:05:19.970Z,72.42
2017-11-19T08:06:00.390Z,72.52
2017-11-19T08:06:40.814Z,71.95
2017-11-19T08:07:21.256Z,72.14
2017-11-19T08:08:01.713Z,72.14
2017-11-19T08:08:42.336Z,72.33
2017-11-19T08:09:22.787Z,72.42
2017-11-19T08:10:03.921Z,72.42
2017-11-19T08:10:44.238Z,72.71
2017-11-19T08:11:24.670Z,72.05
2017-11-19T08:12:05.735Z,72.14
2017-11-19T08:12:46.067Z,72.33
2017-11-19T08:13:26.558Z,72.17
2017-11-19T08:14:07.045Z,72.05
2017-11-19T08:14:47.429Z,71.28
2017-11-19T08:15:27.861Z,71.95
2017-11-19T08:16:08.300Z,72.14
2017-11-19T08:16:48.659Z,72.62
2017-11-19T08:17:29.117Z,72.05
2017-11-19T08:18:09.470Z,72.46
2017-11-19T08:18:49.892Z,72.27
2017-11-19T08:19:30.432Z,72.08
2017-11-19T08:20:10.706Z,71.8
2017-11-19T08:20:51.354Z,71.51
2017-11-19T08:21:31.642Z,71.51
2017-11-19T08:22:12.116Z,71.42
2017-11-19T08:22:52.440Z,71.42
2017-11-19T08:23:33.171Z,71.42
2017-11-19T08:24:13.765Z,71.7
2017-11-19T08:24:54.233Z,71.51
2017-11-19T08:25:34.651Z,71.03
2017-11-19T08:26:15.018Z,71.13
2017-11-19T08:26:55.559Z,70.56
2017-11-19T08:27:36.060Z,70.47
2017-11-19T08:28:17.304Z,70.75
2017-11-19T08:28:58.328Z,70.75
2017-11-19T08:29:40.302Z,69.79
2017-11-19T08:30:22.180Z,69.64
2017-11-19T08:31:03.666Z,69.51
2017-11-19T08:31:44.101Z,69.17
2017-11-19T08:32:24.620Z,68.5
2017-11-19T08:33:05.142Z,68.3
2017-11-19T08:33:45.588Z,67.86
2017-11-19T08:34:27.345Z,67.86
2017-11-19T08:35:08.397Z,66.34
2017-11-19T08:35:50.700Z,65.67
2017-11-19T08:36:31.537Z,65.58
2017-11-19T08:37:11.914Z,65.42
2017-11-19T08:37:52.353Z,65.23
2017-11-19T08:38:33.845Z,64.28
2017-11-19T08:39:14.952Z,64.18
2017-11-19T08:39:56.355Z,63.73
2017-11-19T08:40:36.757Z,63.07
2017-11-19T08:41:18.420Z,62.49
2017-11-19T08:41:58.670Z,62.3
2017-11-19T08:42:39.480Z,62.3
2017-11-19T08:43:21.054Z,61.83
2017-11-19T08:44:06.736Z,62.3
2017-11-19T08:44:47.641Z,62.88
2017-11-19T08:45:29.985Z,62.59
2017-11-19T08:47:41.367Z,61.16
2017-11-19T08:48:37.629Z,61.73
2017-11-19T08:51:03.029Z,62.11
2017-11-19T08:51:42.952Z,61.92
2017-11-19T08:52:24.600Z,62.21
2017-11-19T08:53:06.677Z,62.75
2017-11-19T08:53:47.777Z,63.13
2017-11-19T08:54:29.521Z,63.04
2017-11-19T08:55:11.303Z,63.32
2017-11-19T08:55:52.258Z,63.23
2017-11-19T08:56:33.009Z,63.13
2017-11-19T08:57:13.984Z,63.7
2017-11-19T08:57:55.078Z,63.6
2017-11-19T08:58:35.979Z,64.09
2017-11-19T08:59:17.109Z,64.09
2017-11-19T08:59:57.384Z,63.6
2017-11-19T09:00:38.354Z,63.42
2017-11-19T09:01:19.143Z,63.32
2017-11-19T09:01:59.679Z,62.97
2017-11-19T09:02:40.436Z,62.59
2017-11-19T09:03:20.830Z,62.49
2017-11-19T09:04:01.830Z,61.66
2017-11-19T09:04:42.630Z,61.19
2017-11-19T09:05:23.934Z,60.33
2017-11-19T09:06:04.846Z,59.59
2017-11-19T09:06:45.058Z,59.69
2017-11-19T09:07:25.528Z,58.36
2017-11-19T09:08:06.977Z,58.45
2017-11-19T09:08:49.089Z,57.62
2017-11-19T09:09:29.664Z,57.24
2017-11-19T09:10:10.593Z,56.95
2017-11-19T09:10:51.026Z,56.85
2017-11-19T09:11:31.424Z,57.24
2017-11-19T09:12:11.975Z,56.57
2017-11-19T09:12:53.637Z,56.76
2017-11-19T09:13:34.028Z,56.31
2017-11-19T09:14:14.645Z,56.31
2017-11-19T09:14:55.633Z,56.02
2017-11-19T09:15:36.988Z,55.83
2017-11-19T09:16:17.635Z,55.45
2017-11-19T09:16:59.174Z,55.83
2017-11-19T09:17:39.209Z,55.45
2017-11-19T09:18:19.557Z,55.45
2017-11-19T09:19:00.032Z,55.1
2017-11-19T09:19:40.535Z,55.1
2017-11-19T09:20:22.412Z,55
2017-11-19T09:21:02.597Z,54.14
2017-11-19T09:21:43.356Z,54.52
2017-11-19T09:22:23.849Z,54.71
2017-11-19T09:23:04.971Z,54.23
2017-11-19T09:23:46.138Z,53.94
2017-11-19T09:24:27.709Z,54.23
2017-11-19T09:25:07.999Z,53.66
2017-11-19T09:25:49.104Z,54.23
2017-11-19T09:26:30.520Z,54.14
2017-11-19T09:27:10.930Z,54.33
2017-11-19T09:27:51.480Z,53.85
2017-11-19T09:28:32.425Z,53.75
2017-11-19T09:29:12.399Z,53.85